Whiteville, Arkansas
Current Conditions -  °F | °C
As of 12:53 PM on Thursday 23 Oct 2014 (Local Time) from KBPK Reporting Station
Broken Clouds Broken Clouds  
Wind Chill: 59°   Ceiling: 4300
Heat Index: 59°   Visibility: 10mi
Dew Point: 46°   Wind: 7mph
Humidity: 62%   Direction: 200°SSW
Pressure: 30.18"   Gusts: NA
Location:  36.3299°N, 92.4805°W
Report Text: KBPK 231753Z AUTO 20006KT 10SM BKN043 15/08 A3018 RMK AO2 SLP218 T01500078 10150 20078 58008
Loading
Personal Weather Stations






























Interactive Weather Map
Tropical Storm Tracking
New forecast layout! Learn more

10-Day Weather Forecast

Advertisements
Track Severe Weather on mobile